Tropical Cyclones
[Index]
Main Index Home Page Stock Weather Photos Extreme Storms Discussion Storm News and Storm Chasing Reports Tropical Cyclones / Hurricanes / Typhoons Weather Data and Links Wild Fires / Bushfires Weather Observation Techniques Weather Picture Catalogue Tornado Pictures and Reports Stock Video Footage and DVDs for sale
Season 1975-1976 Tropical Cyclone DAVID Track Map
Season 1975-1976 Summaries: [BoM-AU] [JTWC-AU] [JTWC-SIO] [JTWC-SPAC] [JTWC-SH]
<<- Previous TC | BoM 1975-1976 Season | Next TC ->>

click for intensity scale information  Lat/long Grid: Show Hide

 Date Labels: Show Hide

Bureau of Meteorology Tropical Cyclone Data

Name: DAVID
Number: 550 / 197576_06

13 Jan 1976 23:00 UTC to 21 Jan 1976 23:00 UTC

    date/time    lat    long    hPa   cat  kts
1976-01-13 23   15.4   167.4    991    1                
1976-01-14 05   15.6   167.2    990    1                
1976-01-14 11   16.0   166.8    989    1                
1976-01-14 17   16.3   166.5    987    1                
1976-01-14 23   17.0   166.0    985    2                
1976-01-15 05   17.4   165.5    981    2                
1976-01-15 11   17.6   165.0    979    2                
1976-01-15 17   18.1   164.4    976    2                
1976-01-15 23   18.3   163.7    974    2                
1976-01-16 05   18.4   163.1    970    3                
1976-01-16 11   18.5   162.5    968    3                
1976-01-16 17   18.8   161.8    967    3                
1976-01-16 23   19.2   161.0    967    3                
1976-01-17 05   19.5   160.3    966    3                
1976-01-17 11   19.7   159.6    965    3                
1976-01-17 17   19.9   158.9    965    3                
1976-01-17 23   20.2   158.3    965    3                
1976-01-18 05   20.4   156.9    965    3                
1976-01-18 11   20.7   155.5    965    3                
1976-01-18 17   20.9   154.2    965    3                
1976-01-18 23   21.5   153.0    965    3                
1976-01-19 05   21.8   151.8    963    3                
1976-01-19 11   22.0   150.4    961    3                
1976-01-19 14   22.0   149.8    963    3                
1976-01-19 17   22.2   149.0    969    3                
1976-01-19 23   23.0   147.0    979    2                
1976-01-20 05   24.0   145.3    983    2                
1976-01-20 11   24.5   144.5    985    2                
1976-01-20 17   25.0   143.4    986    1                
1976-01-20 23   25.3   142.5    989    1                
1976-01-21 02   25.7   142.2    990    1                
1976-01-21 05   25.9   142.1    990    1                
1976-01-21 11   26.6   142.5    993    1                
1976-01-21 23   27.9   143.2    996                     
Winds are 10-min average.

Tropical cyclone tracks developed by Michael Bath using data from the Bureau of Meteorology and Google Maps.


[Australian Severe Weather index] [Copyright Notice] [Email Contacts] [Search This Site] [Privacy Policy]
Document: tropical_cyclone_david.htm Updated: 30 May 2013